Time;durP1;ratioP1;P1;durP2;ratioP2;P2;SDS_P1;SDS_P2;PMS_P1;PMS_P2;Temp;Humidity;BMP_temperature;BMP_pressure;BME280_temperature;BME280_humidity;BME280_pressure;Samples;Min_cycle;Max_cycle;Signal;HPM_P1;HPM_P2
2022/09/12 00:00:25;;;;;;;9.13;4.65;;;;;;;16.87;75.40;101787.09;5038335;27;100988;-31
2022/09/12 00:02:52;;;;;;;9.25;4.47;;;;;;;16.87;75.31;101786.22;5056152;27;99157;-30
2022/09/12 00:05:18;;;;;;;9.13;4.13;;;;;;;16.87;75.36;101780.75;5037980;27;96677;-31
2022/09/12 00:07:43;;;;;;;7.43;3.95;;;;;;;16.85;76.27;101775.41;5057018;27;96750;-30
2022/09/12 00:10:08;;;;;;;9.57;4.72;;;;;;;16.86;75.95;101787.22;5056635;27;97363;-30
2022/09/12 00:12:33;;;;;;;8.70;4.57;;;;;;;16.86;75.41;101792.72;5056413;27;98129;-30
2022/09/12 00:14:59;;;;;;;9.63;4.25;;;;;;;16.83;75.44;101787.44;5056378;27;96670;-32
2022/09/12 00:17:24;;;;;;;8.80;4.40;;;;;;;16.82;75.49;101788.44;5056584;27;96932;-30
2022/09/12 00:19:50;;;;;;;8.50;4.20;;;;;;;16.83;75.21;101787.44;5056400;27;98077;-31
2022/09/12 00:22:15;;;;;;;8.80;4.55;;;;;;;16.79;75.22;101789.53;5055679;27;97850;-30
2022/09/12 00:24:40;;;;;;;9.00;4.63;;;;;;;16.76;75.37;101781.53;5056276;27;103121;-30
2022/09/12 00:27:06;;;;;;;9.25;4.30;;;;;;;16.74;75.01;101781.63;5056456;27;99107;-31
2022/09/12 00:29:31;;;;;;;13.07;4.57;;;;;;;16.78;74.83;101787.75;5055704;27;97909;-30
2022/09/12 00:31:56;;;;;;;8.57;4.50;;;;;;;16.76;75.42;101787.00;5055819;27;99368;-30
2022/09/12 00:34:22;;;;;;;9.90;4.82;;;;;;;16.75;75.34;101780.63;5056347;27;96707;-30
2022/09/12 00:36:47;;;;;;;11.52;4.80;;;;;;;16.73;75.20;101777.16;5056015;27;101927;-32
2022/09/12 00:39:16;;;;;;;11.60;4.00;;;;;;;16.75;75.77;101779.75;5055779;27;98898;-30
2022/09/12 00:41:42;;;;;;;9.18;4.55;;;;;;;16.74;75.31;101778.03;5037711;27;101246;-30
2022/09/12 00:44:11;;;;;;;8.48;4.80;;;;;;;16.73;75.39;101770.78;5038000;27;96604;-30
2022/09/12 00:46:42;;;;;;;10.60;4.95;;;;;;;16.70;75.40;101771.88;5056575;27;96802;-30
2022/09/12 00:49:11;;;;;;;8.45;4.18;;;;;;;16.69;75.83;101772.88;5055725;27;99324;-31
2022/09/12 00:51:39;;;;;;;7.55;4.10;;;;;;;16.65;75.73;101770.47;5055800;27;99348;-30
2022/09/12 00:54:09;;;;;;;11.48;5.10;;;;;;;16.64;75.41;101771.47;5037266;27;96582;-30
2022/09/12 00:56:38;;;;;;;9.90;4.43;;;;;;;16.62;75.83;101768.84;5037851;27;96732;-31
2022/09/12 00:59:13;;;;;;;8.95;4.78;;;;;;;16.63;75.82;101764.25;5053939;27;100157;-30
2022/09/12 01:01:40;;;;;;;8.90;4.72;;;;;;;16.61;75.81;101758.00;5037380;27;101430;-30
2022/09/12 01:04:07;;;;;;;14.05;5.15;;;;;;;16.60;75.38;101753.53;5037576;27;96586;-31
2022/09/12 01:06:38;;;;;;;9.68;5.13;;;;;;;16.55;75.97;101754.72;5037537;27;96838;-32
2022/09/12 01:09:04;;;;;;;12.83;5.17;;;;;;;16.53;75.76;101750.34;5037368;27;101326;-31
2022/09/12 01:11:37;;;;;;;9.68;4.63;;;;;;;16.54;75.96;101761.19;5037168;27;100858;-31
2022/09/12 01:14:03;;;;;;;12.13;4.53;;;;;;;16.53;75.91;101753.97;5037505;27;96547;-30
2022/09/12 01:16:29;;;;;;;12.40;5.50;;;;;;;16.48;75.65;101747.94;5054871;27;96889;-30
2022/09/12 01:19:23;;;;;;;11.90;5.03;;;;;;;16.48;75.79;101745.22;5055018;27;98202;-30
2022/09/12 01:22:07;;;;;;;13.20;5.18;;;;;;;16.50;75.99;101748.72;5054917;27;99581;-30
2022/09/12 01:25:02;;;;;;;10.18;4.30;;;;;;;16.46;76.50;101749.91;5055671;27;96626;-30
2022/09/12 01:27:34;;;;;;;10.75;4.97;;;;;;;16.46;75.93;101752.66;5037217;27;96736;-31
2022/09/12 01:30:17;;;;;;;11.70;5.40;;;;;;;16.45;75.75;101750.06;5055326;27;102726;-31
2022/09/12 01:33:20;;;;;;;14.90;4.93;;;;;;;16.46;75.04;101747.19;5036699;27;100850;-30
2022/09/12 01:35:54;;;;;;;10.43;4.65;;;;;;;16.41;75.80;101748.50;5055239;27;96672;-30
2022/09/12 01:38:35;;;;;;;14.68;6.60;;;;;;;16.42;75.82;101745.69;5037515;27;96668;-31
2022/09/12 01:41:42;;;;;;;13.75;5.95;;;;;;;16.40;75.22;101739.44;5055404;27;97469;-30
2022/09/12 01:44:29;;;;;;;11.73;5.07;;;;;;;16.39;75.31;101728.59;5036766;27;101271;-30
2022/09/12 01:47:04;;;;;;;11.93;5.03;;;;;;;16.42;75.13;101731.09;5036262;27;97316;-30
2022/09/12 01:49:41;;;;;;;13.55;6.25;;;;;;;16.42;75.34;101728.38;5036955;27;96854;-30
2022/09/12 01:52:23;;;;;;;13.48;5.53;;;;;;;16.42;75.29;101726.53;5036617;27;100971;-30
2022/09/12 01:55:00;;;;;;;14.20;5.90;;;;;;;16.41;75.10;101722.03;5054631;27;98892;-30
2022/09/12 01:57:36;;;;;;;12.27;5.53;;;;;;;16.41;75.51;101722.03;5055036;27;96590;-30
2022/09/12 02:00:08;;;;;;;10.80;5.45;;;;;;;16.41;75.29;101722.03;5055272;27;96738;-30
2022/09/12 02:02:41;;;;;;;14.07;5.63;;;;;;;16.37;75.60;101715.03;5054699;27;98889;-30
2022/09/12 02:05:12;;;;;;;13.80;5.93;;;;;;;16.34;75.27;101709.78;5036846;27;101066;-30
2022/09/12 02:07:50;;;;;;;12.77;5.93;;;;;;;16.37;75.71;101709.56;5036669;27;96589;-30
2022/09/12 02:10:31;;;;;;;15.57;5.70;;;;;;;16.34;75.77;101705.19;5036761;27;96725;-32
2022/09/12 02:13:06;;;;;;;11.05;5.55;;;;;;;16.33;75.46;101695.25;5054108;27;97819;-30
2022/09/12 02:15:36;;;;;;;12.90;6.50;;;;;;;16.33;75.71;101697.97;5035723;27;100777;-31
2022/09/12 02:18:04;;;;;;;13.13;5.78;;;;;;;16.34;75.75;101699.72;5036671;27;96866;-30
2022/09/12 02:20:35;;;;;;;16.70;5.85;;;;;;;16.33;75.89;101700.72;5036542;27;96872;-30
2022/09/12 02:23:07;;;;;;;11.80;5.13;;;;;;;16.33;75.94;101697.13;5052957;27;100862;-30
2022/09/12 02:25:34;;;;;;;12.13;6.47;;;;;;;16.33;75.87;101692.50;5054850;27;97814;-31
2022/09/12 02:28:07;;;;;;;11.57;5.57;;;;;;;16.32;76.11;101692.63;5036323;27;96587;-30
2022/09/12 02:30:40;;;;;;;14.32;6.25;;;;;;;16.31;76.29;101690.88;5036584;27;96826;-30
2022/09/12 02:33:44;;;;;;;15.32;5.80;;;;;;;16.33;76.10;101688.91;5036080;27;101274;-30
2022/09/12 02:36:31;;;;;;;12.80;5.13;;;;;;;16.33;76.33;101688.91;5021943;27;97941;-30
2022/09/12 02:38:57;;;;;;;11.90;5.75;;;;;;;16.31;75.99;101686.28;5053668;27;97666;-30
2022/09/12 02:41:23;;;;;;;13.95;5.70;;;;;;;16.32;76.23;101687.16;5054772;27;96737;-30
2022/09/12 02:43:50;;;;;;;13.13;5.65;;;;;;;16.32;75.92;101678.94;5035870;27;101489;-31
2022/09/12 02:46:30;;;;;;;16.55;6.88;;;;;;;16.33;76.18;101691.66;5038497;27;100866;-30
2022/09/12 02:48:56;;;;;;;12.50;5.95;;;;;;;16.32;76.54;101687.16;5039802;27;96637;-30
2022/09/12 02:51:22;;;;;;;14.18;5.72;;;;;;;16.31;75.98;101685.41;5039691;27;96836;-30
2022/09/12 02:53:47;;;;;;;15.07;5.93;;;;;;;16.29;76.30;101674.56;5057823;27;97859;-32
2022/09/12 02:56:19;;;;;;;10.80;5.68;;;;;;;16.30;76.09;101678.19;5057975;27;97263;-30
2022/09/12 02:58:45;;;;;;;15.55;6.53;;;;;;;16.31;76.22;101674.47;5039703;27;96613;-30
2022/09/12 03:01:13;;;;;;;13.55;6.05;;;;;;;16.30;76.27;101669.97;5057991;27;96850;-30
2022/09/12 03:04:12;;;;;;;13.88;6.25;;;;;;;16.34;76.56;101676.97;5057122;27;97989;-31
2022/09/12 03:06:54;;;;;;;14.15;5.75;;;;;;;16.33;76.51;101672.50;5057671;27;97500;-31
2022/09/12 03:09:36;;;;;;;13.25;6.13;;;;;;;16.32;76.56;101665.28;5057846;27;96581;-30
2022/09/12 03:12:07;;;;;;;;;;;;;;;16.31;76.78;101663.53;5057813;27;98190;-30
2022/09/12 03:14:35;;;;;;;10.20;4.65;;;;;;;16.31;76.77;101656.19;5057739;27;97387;-30
2022/09/12 03:17:20;;;;;;;12.45;5.72;;;;;;;16.31;77.08;101658.06;5057053;27;99267;-31
2022/09/12 03:19:57;;;;;;;11.50;5.30;;;;;;;16.31;76.09;101649.88;5039248;27;96665;-30
2022/09/12 03:22:47;;;;;;;13.68;5.43;;;;;;;16.32;76.38;101652.47;5039517;27;96845;-31
2022/09/12 03:25:30;;;;;;;12.90;5.30;;;;;;;16.33;76.54;101650.63;5038887;27;101354;-30
2022/09/12 03:28:06;;;;;;;12.73;5.90;;;;;;;16.32;76.38;101649.75;5038906;27;101020;-30
2022/09/12 03:30:40;;;;;;;12.25;5.55;;;;;;;16.32;76.63;101651.59;5038648;27;96677;-30
2022/09/12 03:33:10;;;;;;;12.95;6.20;;;;;;;16.31;76.07;101642.53;5057168;27;96648;-30
2022/09/12 03:35:36;;;;;;;13.50;5.47;;;;;;;16.31;76.33;101638.94;5038637;27;100595;-32
2022/09/12 03:38:01;;;;;;;15.23;6.28;;;;;;;16.31;75.98;101644.41;5057040;27;97791;-31
2022/09/12 03:40:29;;;;;;;14.38;6.13;;;;;;;16.32;76.33;101641.53;5057319;27;96679;-31
2022/09/12 03:42:55;;;;;;;11.98;6.00;;;;;;;16.31;75.97;101645.25;5056798;27;101330;-30
2022/09/12 03:45:20;;;;;;;13.60;6.28;;;;;;;16.32;76.13;101651.59;5056776;27;103356;-32
2022/09/12 03:47:46;;;;;;;14.27;5.90;;;;;;;16.32;76.29;101648.88;5056773;27;99570;-30
2022/09/12 03:50:12;;;;;;;11.32;5.53;;;;;;;16.31;76.32;101647.13;5038818;27;96623;-30
2022/09/12 03:52:37;;;;;;;10.73;5.28;;;;;;;16.31;76.07;101644.41;5056981;27;96855;-31
2022/09/12 03:55:03;;;;;;;12.23;5.47;;;;;;;16.31;76.17;101650.72;5056014;27;99300;-30
2022/09/12 03:57:28;;;;;;;12.35;5.38;;;;;;;16.31;76.05;101644.41;5056442;27;99603;-30
2022/09/12 03:59:53;;;;;;;11.88;5.13;;;;;;;16.29;76.30;101636.31;5056776;27;96671;-31
2022/09/12 04:02:19;;;;;;;12.57;5.50;;;;;;;16.28;76.09;101639.13;5056517;27;96830;-33
2022/09/12 04:04:47;;;;;;;13.82;5.20;;;;;;;16.29;76.22;101640.91;5056452;27;99409;-30
2022/09/12 04:07:14;;;;;;;11.48;5.03;;;;;;;16.27;76.25;101635.53;5056423;27;99587;-31
2022/09/12 04:09:39;;;;;;;12.13;5.03;;;;;;;16.26;76.62;101635.66;5038527;27;96619;-30
2022/09/12 04:12:06;;;;;;;17.92;6.45;;;;;;;16.24;76.70;101630.28;5057197;27;96663;-31
2022/09/12 04:14:31;;;;;;;13.25;5.75;;;;;;;16.25;76.49;101636.63;5038023;27;100812;-30
2022/09/12 04:16:57;;;;;;;12.10;5.47;;;;;;;16.23;76.75;101628.56;5055804;27;97334;-31
2022/09/12 04:19:22;;;;;;;15.73;6.30;;;;;;;16.21;76.68;101626.91;5055986;27;96716;-30
2022/09/12 04:21:47;;;;;;;12.60;5.00;;;;;;;16.20;76.78;101631.50;5056347;27;96827;-30
2022/09/12 04:24:13;;;;;;;11.55;5.43;;;;;;;16.19;77.01;101632.50;5056414;27;97225;-31
2022/09/12 04:26:38;;;;;;;10.43;5.28;;;;;;;16.17;77.15;101639.94;5055478;27;112901;-30
2022/09/12 04:29:03;;;;;;;16.98;5.80;;;;;;;16.14;77.00;101632.81;5056582;27;96775;-30
2022/09/12 04:31:29;;;;;;;9.45;5.40;;;;;;;16.15;76.94;101639.16;5056333;27;96864;-30
2022/09/12 04:34:00;;;;;;;13.73;5.82;;;;;;;16.13;77.30;101631.06;5056325;27;98527;-30
2022/09/12 04:36:26;;;;;;;14.60;6.10;;;;;;;16.11;77.37;101629.44;5038166;27;101456;-30
2022/09/12 04:38:52;;;;;;;16.27;6.15;;;;;;;16.08;77.49;101635.13;5038098;27;96524;-30
2022/09/12 04:41:24;;;;;;;14.32;6.07;;;;;;;16.06;77.05;101632.50;5037995;27;96904;-30
2022/09/12 04:43:52;;;;;;;12.95;5.82;;;;;;;16.06;77.44;101643.41;5037022;27;101035;-30
2022/09/12 04:46:19;;;;;;;12.15;5.82;;;;;;;16.04;77.16;101636.31;5037591;27;98978;-30
2022/09/12 04:48:45;;;;;;;12.30;5.78;;;;;;;16.03;77.13;101630.00;5037992;27;96604;-30
2022/09/12 04:51:22;;;;;;;11.52;5.80;;;;;;;16.05;76.95;101638.09;5056166;27;96834;-30
2022/09/12 04:53:50;;;;;;;12.32;6.07;;;;;;;16.02;77.33;101639.19;5037482;27;101503;-31
2022/09/12 04:56:16;;;;;;;14.30;5.80;;;;;;;16.02;77.24;101639.19;5037349;27;101110;-33
2022/09/12 04:58:41;;;;;;;12.73;5.93;;;;;;;15.98;77.32;101637.66;5037511;27;96615;-31
2022/09/12 05:01:10;;;;;;;15.82;6.38;;;;;;;15.97;77.60;101635.91;5056248;27;96968;-31
2022/09/12 05:03:38;;;;;;;14.70;6.03;;;;;;;15.96;77.47;101642.34;5037272;27;100827;-31
2022/09/12 05:06:07;;;;;;;12.60;6.28;;;;;;;15.92;77.80;101640.81;5054268;27;101371;-32
2022/09/12 05:08:34;;;;;;;17.48;5.82;;;;;;;15.89;77.78;101638.31;5055067;27;96479;-30
2022/09/12 05:11:05;;;;;;;18.75;5.93;;;;;;;15.86;77.69;101631.19;5055637;27;96792;-30
2022/09/12 05:13:32;;;;;;;14.98;6.85;;;;;;;15.87;77.49;101641.16;5055184;27;99109;-30
2022/09/12 05:15:59;;;;;;;10.25;5.47;;;;;;;15.84;77.88;101635.91;5036537;27;100922;-30
2022/09/12 05:18:25;;;;;;;20.80;6.00;;;;;;;15.81;77.66;101638.84;5037710;27;96803;-31
2022/09/12 05:20:51;;;;;;;13.70;6.15;;;;;;;15.81;77.92;101640.72;5037280;27;96883;-30
2022/09/12 05:23:16;;;;;;;14.60;6.70;;;;;;;15.79;77.99;101648.16;5055094;27;97989;-30
2022/09/12 05:25:52;;;;;;;13.93;5.57;;;;;;;15.77;77.83;101634.59;5055431;27;99627;-30
2022/09/12 05:28:19;;;;;;;14.35;6.30;;;;;;;15.77;77.65;101633.72;5037318;27;96617;-30
2022/09/12 05:30:45;;;;;;;13.10;5.93;;;;;;;15.71;77.79;101624.97;5037175;27;96923;-30
2022/09/12 05:33:11;;;;;;;14.95;6.53;;;;;;;15.73;78.03;101622.16;5054875;27;97901;-30
2022/09/12 05:35:37;;;;;;;16.88;5.97;;;;;;;15.74;78.09;101615.69;5055098;27;99634;-30
2022/09/12 05:38:03;;;;;;;13.40;6.28;;;;;;;15.70;77.91;101617.75;5037109;27;96853;-30
2022/09/12 05:40:28;;;;;;;15.27;6.38;;;;;;;15.73;77.97;101615.78;5037002;27;96826;-31
2022/09/12 05:42:54;;;;;;;15.65;6.57;;;;;;;15.73;78.06;101615.78;5055320;27;97675;-31
2022/09/12 05:45:20;;;;;;;14.52;7.03;;;;;;;15.75;77.55;101613.81;5054958;27;102188;-30
2022/09/12 05:47:45;;;;;;;20.58;8.15;;;;;;;15.73;77.97;101615.78;5055284;27;96460;-30
2022/09/12 05:50:11;;;;;;;15.70;7.28;;;;;;;15.74;78.10;101612.09;5055818;27;96800;-31
2022/09/12 05:52:36;;;;;;;18.50;7.93;;;;;;;15.72;78.08;101612.19;5054802;27;99775;-31
2022/09/12 05:55:02;;;;;;;18.63;8.27;;;;;;;15.74;78.35;101615.69;5054756;27;97180;-31
2022/09/12 05:57:28;;;;;;;18.27;7.60;;;;;;;15.73;78.13;101622.16;5036356;27;96717;-30
2022/09/12 05:59:53;;;;;;;17.67;6.78;;;;;;;15.72;78.60;101617.66;5055111;27;96829;-31
2022/09/12 06:02:19;;;;;;;18.30;7.57;;;;;;;15.73;78.28;101634.91;5054979;27;98370;-30
2022/09/12 06:04:45;;;;;;;18.08;7.15;;;;;;;15.75;78.14;101628.34;5036336;27;100914;-30
2022/09/12 06:07:10;;;;;;;17.02;7.50;;;;;;;15.77;78.43;101633.72;5054822;27;96575;-30
2022/09/12 06:09:35;;;;;;;14.85;6.78;;;;;;;15.77;77.92;101631.84;5055096;27;96728;-31
2022/09/12 06:12:01;;;;;;;16.30;7.55;;;;;;;15.78;78.49;101636.34;5054711;27;97521;-31
2022/09/12 06:14:26;;;;;;;18.88;7.10;;;;;;;15.79;78.27;101632.63;5055096;27;97988;-31
2022/09/12 06:16:52;;;;;;;17.48;7.50;;;;;;;15.83;77.78;101633.28;5054550;27;96824;-31
2022/09/12 06:19:19;;;;;;;20.38;8.15;;;;;;;15.84;78.64;101624.97;5054824;27;96537;-30
2022/09/12 06:21:48;;;;;;;17.98;7.97;;;;;;;15.89;78.06;101627.38;5038699;27;103032;-31
2022/09/12 06:24:14;;;;;;;20.73;8.10;;;;;;;15.94;77.59;101622.44;5039852;27;101387;-31
2022/09/12 06:26:40;;;;;;;22.50;8.57;;;;;;;15.97;78.66;101624.09;5040149;27;96483;-30
2022/09/12 06:29:06;;;;;;;17.42;7.75;;;;;;;15.97;78.38;101624.09;5058665;27;96717;-30
2022/09/12 06:31:34;;;;;;;22.85;9.02;;;;;;;16.02;78.00;101613.72;5058245;27;97898;-31
2022/09/12 06:34:02;;;;;;;22.60;9.43;;;;;;;16.10;77.93;101611.28;5039637;27;100913;-30
2022/09/12 06:36:30;;;;;;;25.13;8.95;;;;;;;16.18;77.48;101610.72;5039901;27;96697;-31
2022/09/12 06:39:02;;;;;;;19.70;8.80;;;;;;;16.25;78.12;101604.69;5040278;27;96920;-31
2022/09/12 06:41:30;;;;;;;18.95;8.00;;;;;;;16.34;77.87;101614.09;5039490;27;100942;-30
2022/09/12 06:43:56;;;;;;;19.85;8.48;;;;;;;16.38;77.64;101623.81;5057834;27;99565;-30
2022/09/12 06:46:22;;;;;;;19.35;8.57;;;;;;;16.46;77.70;101621.38;5057849;27;96521;-31
2022/09/12 06:48:47;;;;;;;19.00;8.63;;;;;;;16.59;76.76;101620.47;5058172;27;96750;-30
2022/09/12 06:51:15;;;;;;;24.98;10.23;;;;;;;16.68;76.88;101608.84;5057380;27;108800;-30
2022/09/12 06:53:41;;;;;;;20.35;8.98;;;;;;;16.85;75.92;101621.28;5039321;27;100932;-31
2022/09/12 06:56:08;;;;;;;26.30;9.95;;;;;;;16.92;76.05;101623.47;5058156;27;96554;-33
2022/09/12 06:58:34;;;;;;;20.73;8.93;;;;;;;17.05;75.78;101617.03;5058116;27;96751;-32
2022/09/12 07:01:10;;;;;;;24.52;9.23;;;;;;;17.25;75.13;101621.84;5039387;27;100903;-30
2022/09/12 07:03:37;;;;;;;24.45;9.63;;;;;;;17.35;74.78;101624.72;5057755;27;97881;-31
2022/09/12 07:06:08;;;;;;;24.55;9.63;;;;;;;17.46;74.47;101627.50;5039606;27;96616;-30
2022/09/12 07:08:35;;;;;;;20.00;8.87;;;;;;;17.55;74.37;101620.44;5039654;27;96668;-30
2022/09/12 07:11:16;;;;;;;23.50;9.77;;;;;;;17.77;74.28;101625.97;5038603;27;101283;-32
2022/09/12 07:13:44;;;;;;;21.73;9.25;;;;;;;17.82;73.27;101621.00;5057458;27;97929;-30
2022/09/12 07:16:10;;;;;;;29.33;11.10;;;;;;;17.87;73.50;101626.13;5024316;28;96846;-30
2022/09/12 07:18:39;;;;;;;26.30;10.27;;;;;;;17.92;73.48;101626.63;5014824;28;96817;-29
2022/09/12 07:21:11;;;;;;;24.88;9.32;;;;;;;17.91;73.29;101619.41;5014454;28;100982;-30
2022/09/12 07:23:36;;;;;;;22.85;8.82;;;;;;;17.85;73.13;101628.13;5015950;28;97250;-30
2022/09/12 07:26:02;;;;;;;23.85;9.48;;;;;;;17.86;73.25;101639.97;5014698;28;96635;-31
2022/09/12 07:28:29;;;;;;;26.77;9.02;;;;;;;17.96;72.98;101632.75;5016508;28;96801;-30
2022/09/12 07:30:55;;;;;;;24.30;9.65;;;;;;;18.04;72.88;101622.03;5013745;28;100006;-31
2022/09/12 07:33:23;;;;;;;26.52;9.90;;;;;;;18.19;72.25;101625.41;5014037;28;100843;-30
2022/09/12 07:35:49;;;;;;;22.70;9.23;;;;;;;18.36;72.03;101638.63;5013901;28;96646;-30
2022/09/12 07:38:15;;;;;;;22.50;9.60;;;;;;;18.52;71.56;101632.75;5016016;28;96747;-30
2022/09/12 07:40:42;;;;;;;24.05;10.15;;;;;;;18.58;71.41;101632.22;5013928;28;101340;-30
2022/09/12 07:43:08;;;;;;;22.52;9.43;;;;;;;18.72;71.16;101625.59;5013774;28;101151;-29
2022/09/12 07:45:34;;;;;;;20.92;9.70;;;;;;;18.90;71.01;101628.69;5015527;28;96633;-30
2022/09/12 07:47:59;;;;;;;26.88;8.95;;;;;;;19.05;70.29;101619.16;5015617;28;96891;-30
2022/09/12 07:50:25;;;;;;;22.17;9.00;;;;;;;19.20;70.31;101618.84;5015282;28;99582;-30
2022/09/12 07:52:52;;;;;;;21.30;8.95;;;;;;;19.33;69.02;101629.63;5015551;28;98719;-30
2022/09/12 07:55:18;;;;;;;20.30;8.50;;;;;;;19.28;69.15;101628.19;5014141;28;96900;-30
2022/09/12 07:57:43;;;;;;;22.08;9.45;;;;;;;19.41;69.50;101629.88;5015197;28;96809;-30
2022/09/12 08:00:09;;;;;;;20.50;8.73;;;;;;;19.51;69.38;101625.31;5014252;28;113539;-30
2022/09/12 08:02:35;;;;;;;20.73;8.23;;;;;;;19.55;68.79;101636.91;5014919;28;99225;-30
2022/09/12 08:05:01;;;;;;;23.35;8.90;;;;;;;19.52;69.04;101636.19;5015422;28;96643;-30
2022/09/12 08:07:26;;;;;;;23.92;8.90;;;;;;;19.51;69.12;101630.81;5015073;28;96823;-30
2022/09/12 08:09:52;;;;;;;23.23;8.95;;;;;;;19.57;69.05;101630.28;5014634;28;108523;-30
2022/09/12 08:12:19;;;;;;;20.55;8.05;;;;;;;19.71;69.21;101632.72;5014213;28;99161;-30
2022/09/12 08:14:45;;;;;;;17.95;7.82;;;;;;;19.83;68.05;101625.28;5015103;28;96617;-31
2022/09/12 08:17:10;;;;;;;21.30;9.75;;;;;;;19.95;68.25;101623.31;4972939;28;1208038;-31
2022/09/12 08:19:35;;;;;;;18.75;9.02;;;;;;;20.03;67.80;101631.75;5015861;28;96958;-30
2022/09/12 08:22:01;;;;;;;17.80;7.95;;;;;;;20.11;67.62;101633.78;5015726;28;96925;-30
2022/09/12 08:24:27;;;;;;;14.35;6.70;;;;;;;19.90;66.05;101629.22;5015956;28;96785;-32
2022/09/12 08:26:52;;;;;;;16.42;7.53;;;;;;;20.00;67.75;101628.38;5016067;28;96906;-30
2022/09/12 08:29:17;;;;;;;23.00;7.22;;;;;;;20.08;67.96;101632.19;5015208;28;119378;-30
2022/09/12 08:31:42;;;;;;;16.60;7.05;;;;;;;20.08;67.23;101628.56;5015800;28;110029;-30
2022/09/12 08:34:08;;;;;;;17.83;7.65;;;;;;;20.10;67.28;101627.44;5015297;28;110924;-30
2022/09/12 08:36:34;;;;;;;17.02;6.68;;;;;;;20.08;67.25;101631.31;5015921;28;96825;-30
2022/09/12 08:39:03;;;;;;;18.67;6.43;;;;;;;20.05;67.12;101626.13;5014219;28;101160;-30
2022/09/12 08:41:30;;;;;;;17.40;6.30;;;;;;;19.97;67.10;101629.53;5014336;28;100992;-30
2022/09/12 08:44:14;;;;;;;13.32;5.82;;;;;;;19.89;67.09;101626.59;5014843;28;96675;-30
2022/09/12 08:47:09;;;;;;;16.58;5.70;;;;;;;19.85;67.06;101622.38;5014515;28;96736;-30
2022/09/12 08:49:48;;;;;;;16.77;6.28;;;;;;;19.79;68.28;101618.28;5013625;28;101089;-32
2022/09/12 08:52:22;;;;;;;15.82;6.32;;;;;;;19.70;67.66;101621.84;5014007;28;100888;-30
2022/09/12 08:54:49;;;;;;;15.55;6.20;;;;;;;19.68;67.92;101618.34;5014457;28;97062;-30
2022/09/12 08:57:14;;;;;;;17.40;6.45;;;;;;;19.70;68.49;101624.59;5014217;28;96898;-30
2022/09/12 08:59:43;;;;;;;13.93;6.25;;;;;;;19.69;68.16;101617.38;5015299;28;99522;-31
2022/09/12 09:02:45;;;;;;;14.77;5.63;;;;;;;19.73;67.80;101614.22;5013848;28;100914;-29
2022/09/12 09:05:34;;;;;;;10.02;4.88;;;;;;;19.75;67.64;101630.56;5015673;28;96522;-30
2022/09/12 09:08:17;;;;;;;12.57;4.35;;;;;;;19.76;68.44;101624.06;5008598;28;96899;-30
2022/09/12 09:10:47;;;;;;;11.50;4.63;;;;;;;19.79;67.27;101621.03;5015191;28;97630;-31
2022/09/12 09:16:29;;;;;;;10.52;3.47;;;;;;;19.97;66.85;101621.28;5035590;27;96873;-29
2022/09/12 09:18:58;;;;;;;8.02;3.63;;;;;;;19.98;65.97;101616.66;5055799;27;96563;-31
2022/09/12 09:22:02;;;;;;;7.13;3.38;;;;;;;20.06;66.19;101623.22;5036799;27;100891;-30
2022/09/12 09:24:52;;;;;;;5.65;3.00;;;;;;;20.14;65.43;101612.41;4987180;27;98930;-29
2022/09/12 09:27:29;;;;;;;6.57;3.30;;;;;;;20.30;65.25;101617.38;5037137;27;96672;-29
2022/09/12 09:29:55;;;;;;;6.07;3.17;;;;;;;20.51;65.04;101608.19;5037407;27;96722;-30
2022/09/12 09:32:34;;;;;;;6.45;3.22;;;;;;;20.73;64.31;101593.31;5036948;27;100859;-30
2022/09/12 09:35:14;;;;;;;7.35;3.53;;;;;;;20.96;63.58;101588.44;5037139;27;100909;-30
2022/09/12 09:38:28;;;;;;;8.32;3.42;;;;;;;21.34;63.66;101590.31;5036978;27;97111;-30
2022/09/12 09:41:19;;;;;;;6.60;3.38;;;;;;;21.69;62.55;101587.94;4953427;28;96946;-30
2022/09/12 09:43:45;;;;;;;9.40;3.47;;;;;;;21.84;61.17;101579.06;5033242;27;99686;-30
2022/09/12 09:46:12;;;;;;;6.25;2.92;;;;;;;21.89;58.06;101575.00;5054998;27;97933;-30
2022/09/12 09:48:43;;;;;;;5.65;3.28;;;;;;;22.09;59.27;101575.75;5037123;27;96626;-30
2022/09/12 09:51:08;;;;;;;10.57;3.67;;;;;;;22.32;59.73;101573.53;5037192;27;96825;-30
2022/09/12 09:53:53;;;;;;;8.40;3.30;;;;;;;22.54;57.74;101572.22;5054665;27;98970;-30
2022/09/12 09:56:36;;;;;;;9.35;3.67;;;;;;;22.76;57.54;101568.13;5054764;27;99401;-31
2022/09/12 09:59:32;;;;;;;8.32;3.58;;;;;;;23.08;58.16;101565.75;5036964;27;96642;-33
2022/09/12 10:02:02;;;;;;;6.80;3.33;;;;;;;22.98;55.28;101559.44;5020642;27;96877;-29
2022/09/12 10:04:38;;;;;;;8.27;3.58;;;;;;;23.00;54.67;101553.72;5053564;27;102227;-31
2022/09/12 10:07:04;;;;;;;12.40;3.33;;;;;;;23.08;56.02;101554.69;5036405;27;101001;-30
2022/09/12 10:09:35;;;;;;;6.63;3.10;;;;;;;23.05;55.34;101549.47;5036198;27;96597;-30
2022/09/12 10:12:19;;;;;;;7.43;2.92;;;;;;;23.26;56.58;101551.91;5036717;27;96814;-30
2022/09/12 10:15:00;;;;;;;9.43;3.65;;;;;;;23.51;53.04;101547.41;5054716;27;99109;-30
2022/09/12 10:17:42;;;;;;;7.00;3.28;;;;;;;23.63;53.83;101547.16;5054467;27;99070;-30
2022/09/12 10:20:45;;;;;;;5.63;3.20;;;;;;;23.77;54.55;101546.59;5036730;27;96949;-30
2022/09/12 10:23:29;;;;;;;6.72;3.25;;;;;;;23.83;54.13;101556.97;5054998;27;96839;-30
2022/09/12 10:26:00;;;;;;;6.50;3.33;;;;;;;24.01;54.02;101539.44;5036356;27;100993;-31
2022/09/12 10:28:38;;;;;;;13.07;3.97;;;;;;;23.96;54.33;101531.66;5036502;27;101134;-30
2022/09/12 10:31:05;;;;;;;5.70;2.85;;;;;;;23.94;55.00;101533.72;5054775;27;96652;-30
2022/09/12 10:33:52;;;;;;;9.35;3.35;;;;;;;23.87;52.76;101518.78;5036476;27;96886;-31
2022/09/12 10:36:19;;;;;;;7.00;3.38;;;;;;;24.10;53.53;101521.84;5037828;27;98083;-30
2022/09/12 10:39:00;;;;;;;6.53;2.78;;;;;;;24.14;53.48;101520.47;5036123;27;100917;-29
2022/09/12 10:41:35;;;;;;;8.15;2.33;;;;;;;24.33;51.87;101522.94;5036239;27;96562;-30
2022/09/12 10:44:08;;;;;;;6.20;2.50;;;;;;;24.55;53.57;101528.94;5036492;27;96850;-30
2022/09/12 10:46:53;;;;;;;7.72;2.80;;;;;;;24.57;52.97;101524.97;5054144;27;97167;-31
2022/09/12 10:49:25;;;;;;;5.65;2.33;;;;;;;24.85;53.47;101518.25;5052928;27;101034;-30
2022/09/12 10:51:53;;;;;;;5.75;2.65;;;;;;;25.12;52.27;101530.91;5054462;27;96586;-31
2022/09/12 10:54:22;;;;;;;5.40;2.30;;;;;;;25.09;50.34;101520.16;5054721;27;96812;-30
2022/09/12 10:56:54;;;;;;;6.47;2.80;;;;;;;25.05;51.71;101527.09;5053751;27;97391;-32
2022/09/12 10:59:33;;;;;;;6.25;3.85;;;;;;;25.21;50.95;101527.13;5035767;27;100968;-30
2022/09/12 11:02:04;;;;;;;9.05;3.22;;;;;;;25.27;51.92;101529.22;5035630;27;96583;-30
2022/09/12 11:04:38;;;;;;;7.40;2.55;;;;;;;25.43;48.83;101529.19;5036039;27;96727;-30
2022/09/12 11:07:19;;;;;;;4.70;2.50;;;;;;;25.55;50.18;101529.69;5056571;27;98066;-32
2022/09/12 11:09:50;;;;;;;7.63;3.03;;;;;;;25.52;50.35;101523.63;5039222;27;101389;-30
2022/09/12 11:12:15;;;;;;;9.23;2.95;;;;;;;25.59;50.90;101524.66;5057853;27;96607;-30
2022/09/12 11:14:46;;;;;;;5.97;2.70;;;;;;;25.71;50.06;101527.91;5057705;27;96931;-31
2022/09/12 11:17:28;;;;;;;6.00;2.97;;;;;;;25.54;48.15;101518.78;5038739;27;100571;-30
2022/09/12 11:20:08;;;;;;;9.23;2.80;;;;;;;25.55;49.68;101521.38;5039370;27;100843;-28
2022/09/12 11:23:06;;;;;;;4.95;2.60;;;;;;;25.38;50.43;101517.75;5039321;27;96642;-28
2022/09/12 11:25:40;;;;;;;6.18;2.75;;;;;;;25.56;48.12;101511.13;5011643;27;97029;-29
2022/09/12 11:28:27;;;;;;;8.38;3.70;;;;;;;25.80;49.83;101512.97;5056621;27;99351;-28
2022/09/12 11:31:21;;;;;;;8.30;3.03;;;;;;;25.79;46.87;101508.47;5038946;27;100865;-29
2022/09/12 11:33:49;;;;;;;6.47;2.90;;;;;;;25.70;49.72;101504.00;5042385;27;96946;-28
2022/09/12 11:37:20;;;;;;;7.72;2.90;;;;;;;25.53;48.53;101509.59;5039089;27;96821;-28
2022/09/12 11:39:50;;;;;;;5.47;2.80;;;;;;;25.62;50.06;101513.19;4951179;28;100498;-30